North Bloomfield, Ohio
Current Conditions -  °F | °C
As of 3:51 PM on Thursday 23 Oct 2014 (Local Time) from KYNG Reporting Station
Few Clouds Few Clouds  
Wind Chill: 58°   Ceiling: Unl
Heat Index: 58°   Visibility: 10mi
Dew Point: 43°   Wind: 15mph
Humidity: 58%   Direction: 330°NNW
Pressure: 30.09"   Gusts: NA
Location:  41.46°N, 80.87°W
Report Text: KYNG 231951Z 33013KT 10SM FEW035 14/06 A3009 RMK AO2 SLP193 T01440061
Loading
Personal Weather Stations






























Interactive Weather Map
Tropical Storm Tracking
New forecast layout! Learn more

10-Day Weather Forecast

Advertisements
Track Severe Weather on mobile